createdAt,value
2022-12-09T00:45:33.303Z,4.45
2022-12-09T00:48:01.984Z,4.38
2022-12-09T00:50:30.504Z,4.50
2022-12-09T00:53:00.207Z,4.30
2022-12-09T00:55:29.164Z,4.60
2022-12-09T00:57:58.255Z,4.80
2022-12-09T01:47:39.590Z,4.05
2022-12-09T01:50:09.940Z,3.80
2022-12-09T01:52:38.911Z,3.55
2022-12-09T01:55:08.619Z,3.97
2022-12-09T01:57:39.711Z,3.60
2022-12-09T02:00:11.376Z,3.70
2022-12-09T02:46:43.702Z,3.58
2022-12-09T02:49:16.141Z,3.00
2022-12-09T02:51:46.971Z,2.88
2022-12-09T02:54:20.886Z,3.20
2022-12-09T02:56:57.101Z,3.10
2022-12-09T02:59:28.842Z,3.10
2022-12-09T03:46:15.762Z,3.00
2022-12-09T03:48:44.732Z,2.95
2022-12-09T03:51:18.408Z,3.20
2022-12-09T03:53:55.946Z,2.60
2022-12-09T03:56:29.422Z,3.25
2022-12-09T03:59:01.864Z,2.95
2022-12-09T04:45:38.481Z,2.40
2022-12-09T04:48:07.592Z,2.60
2022-12-09T04:50:36.439Z,2.70
2022-12-09T04:53:05.181Z,2.90
2022-12-09T04:55:33.668Z,2.40
2022-12-09T04:58:02.294Z,2.38
2022-12-09T05:32:12.438Z,2.40
2022-12-09T05:34:41.117Z,2.55
2022-12-09T05:37:10.159Z,2.40
2022-12-09T05:39:39.177Z,2.22
2022-12-09T05:42:07.762Z,2.40
2022-12-09T05:44:36.259Z,2.25
2022-12-09T05:47:05.336Z,2.53
2022-12-09T05:49:35.545Z,2.38
2022-12-09T05:52:04.515Z,2.63
2022-12-09T05:54:33.310Z,2.70
2022-12-09T05:57:04.312Z,2.50
2022-12-09T05:59:32.910Z,2.58
2022-12-09T06:02:05.179Z,2.25
2022-12-09T06:04:39.529Z,2.20
2022-12-09T06:07:08.686Z,2.60
2022-12-09T06:09:37.886Z,2.35
2022-12-09T06:12:07.294Z,2.42
2022-12-09T06:14:36.116Z,2.65
2022-12-09T06:17:05.377Z,2.20
2022-12-09T06:19:34.284Z,2.58
2022-12-09T06:22:04.840Z,2.47
2022-12-09T06:24:33.556Z,2.50
2022-12-09T06:27:02.159Z,2.90
2022-12-09T06:29:30.831Z,2.70
2022-12-09T06:32:00.310Z,2.83
2022-12-09T06:34:30.569Z,2.60
2022-12-09T06:36:59.482Z,2.50
2022-12-09T06:39:29.702Z,2.65
2022-12-09T06:41:58.400Z,2.50
2022-12-09T06:44:27.001Z,2.83
2022-12-09T06:46:55.483Z,2.28
2022-12-09T06:49:24.180Z,2.58
2022-12-09T06:51:53.437Z,3.10
2022-12-09T06:54:21.928Z,2.88
2022-12-09T06:56:52.611Z,2.80
2022-12-09T06:59:21.166Z,2.50
2022-12-09T07:01:50.071Z,3.10
2022-12-09T07:04:19.936Z,2.70
2022-12-09T07:06:48.912Z,3.05
2022-12-09T07:09:20.368Z,2.65
2022-12-09T07:11:51.504Z,2.90
2022-12-09T07:14:20.309Z,2.47
2022-12-09T07:16:49.816Z,2.38
2022-12-09T07:19:21.300Z,2.55
2022-12-09T07:21:51.023Z,2.83
2022-12-09T07:24:20.598Z,2.50
2022-12-09T07:26:52.030Z,2.63
2022-12-09T07:29:21.004Z,2.70
2022-12-09T07:31:50.518Z,2.53
2022-12-09T07:34:19.483Z,2.53
2022-12-09T07:36:48.190Z,2.30
2022-12-09T07:39:19.280Z,2.30
2022-12-09T07:41:52.142Z,2.60
2022-12-09T07:44:22.279Z,2.10
2022-12-09T07:46:51.366Z,2.47
2022-12-09T07:49:20.167Z,2.10
2022-12-09T07:51:48.958Z,2.60
2022-12-09T07:54:20.537Z,2.35
2022-12-09T07:56:49.464Z,2.30
2022-12-09T07:59:18.459Z,2.33
2022-12-09T08:01:48.650Z,2.30
2022-12-09T08:04:17.205Z,2.80
2022-12-09T08:06:46.462Z,3.20
2022-12-09T08:09:16.013Z,3.40
2022-12-09T08:11:45.420Z,3.90
2022-12-09T08:14:14.274Z,3.88
2022-12-09T08:16:44.134Z,3.42
2022-12-09T08:19:14.622Z,3.30
2022-12-09T08:21:45.557Z,3.42
2022-12-09T08:24:17.268Z,3.33
2022-12-09T08:26:46.036Z,3.00
2022-12-09T08:29:15.283Z,2.88
2022-12-09T08:31:45.455Z,2.97
2022-12-09T08:34:16.267Z,2.85
2022-12-09T08:36:45.284Z,2.72
2022-12-09T08:39:15.688Z,2.70
2022-12-09T08:41:45.474Z,2.80
2022-12-09T08:44:16.392Z,3.17
2022-12-09T08:46:47.641Z,2.83
2022-12-09T08:49:22.092Z,2.85
2022-12-09T08:51:53.633Z,2.38
2022-12-09T08:54:22.429Z,3.10
2022-12-09T08:56:55.119Z,2.47
2022-12-09T08:59:24.670Z,2.80
2022-12-09T09:01:54.551Z,2.78
2022-12-09T09:04:25.138Z,2.40
2022-12-09T09:06:54.831Z,2.55
2022-12-09T09:09:23.780Z,2.58
2022-12-09T09:11:52.786Z,2.20
2022-12-09T09:14:22.025Z,2.60
2022-12-09T09:16:51.026Z,1.92
2022-12-09T09:19:23.486Z,2.35
2022-12-09T09:21:53.998Z,2.63
2022-12-09T09:24:26.146Z,2.35
2022-12-09T09:26:56.258Z,2.20
2022-12-09T09:29:25.599Z,2.63
2022-12-09T09:31:55.391Z,2.47
2022-12-09T09:34:25.382Z,2.55
2022-12-09T09:36:56.980Z,2.38
2022-12-09T09:39:26.583Z,2.65
2022-12-09T09:42:02.123Z,2.47
2022-12-09T09:44:41.150Z,2.45
2022-12-09T09:47:18.041Z,2.50
2022-12-09T09:49:55.106Z,3.10
2022-12-09T09:52:29.698Z,3.30
2022-12-09T09:54:59.351Z,3.60
2022-12-09T09:57:34.589Z,3.22
2022-12-09T10:00:19.444Z,2.78
2022-12-09T10:03:06.056Z,2.53
2022-12-09T10:05:38.548Z,2.90
2022-12-09T10:08:33.588Z,2.78
2022-12-09T10:11:16.275Z,2.58
2022-12-09T10:13:53.770Z,2.65
2022-12-09T10:16:28.193Z,2.58
2022-12-09T10:19:09.394Z,2.80
2022-12-09T10:21:46.053Z,2.65
2022-12-09T10:24:26.919Z,2.70
2022-12-09T10:27:11.794Z,2.30
2022-12-09T10:29:54.348Z,2.60
2022-12-09T10:32:26.558Z,2.72
2022-12-09T10:34:55.336Z,2.53
2022-12-09T10:37:31.635Z,2.20
2022-12-09T10:40:22.444Z,2.30
2022-12-09T10:43:13.110Z,2.28
2022-12-09T10:48:42.246Z,2.40
2022-12-09T10:51:16.913Z,2.25
2022-12-09T10:53:50.989Z,2.22
2022-12-09T10:56:25.203Z,2.33
2022-12-09T10:59:12.102Z,2.10
2022-12-09T11:01:52.781Z,2.30
2022-12-09T11:04:26.680Z,2.10
2022-12-09T11:07:00.034Z,2.33
2022-12-09T11:09:32.150Z,2.38
2022-12-09T11:12:05.838Z,2.10
2022-12-09T11:14:37.513Z,2.03
2022-12-09T11:17:20.218Z,2.20
2022-12-09T11:19:52.576Z,2.08
2022-12-09T11:22:33.483Z,2.20
2022-12-09T11:25:22.695Z,2.40
2022-12-09T11:27:57.068Z,1.90
2022-12-09T11:30:29.478Z,2.50
2022-12-09T11:33:07.690Z,2.15
2022-12-09T11:35:53.999Z,1.98
2022-12-09T11:38:41.789Z,2.00
2022-12-09T11:41:34.975Z,2.40
2022-12-09T11:44:24.189Z,2.35
2022-12-09T11:47:02.061Z,3.13
2022-12-09T11:49:33.871Z,2.83
2022-12-09T11:52:23.542Z,2.47
2022-12-09T11:55:13.354Z,2.47
2022-12-09T11:57:49.637Z,2.20
2022-12-09T12:00:24.999Z,2.88
2022-12-09T12:03:04.396Z,1.90
2022-12-09T12:05:40.237Z,1.92
2022-12-09T12:08:19.356Z,2.08
2022-12-09T12:10:53.371Z,2.30
2022-12-09T12:13:24.967Z,2.13
2022-12-09T12:16:05.763Z,1.85
2022-12-09T12:18:42.363Z,2.03
2022-12-09T12:21:47.456Z,2.10
2022-12-09T12:24:55.118Z,1.73
2022-12-09T12:27:42.597Z,2.00
2022-12-09T12:30:14.018Z,1.98
2022-12-09T12:36:03.813Z,2.30
2022-12-09T12:38:58.050Z,2.20
2022-12-09T12:41:41.342Z,2.50
2022-12-09T12:44:59.117Z,2.15
2022-12-09T12:47:39.503Z,2.20
2022-12-09T12:50:56.104Z,2.33
2022-12-09T12:53:37.837Z,2.10
2022-12-09T12:56:12.732Z,2.10
2022-12-09T12:58:56.528Z,2.00
2022-12-09T13:01:31.229Z,2.00
2022-12-09T13:04:15.004Z,1.98
2022-12-09T13:06:51.852Z,2.50
2022-12-09T13:09:27.488Z,2.03
2022-12-09T13:12:08.572Z,1.90
2022-12-09T13:14:52.089Z,1.98
2022-12-09T13:17:24.321Z,2.05
2022-12-09T13:19:56.147Z,2.00
2022-12-09T13:22:33.751Z,2.00
2022-12-09T13:25:13.830Z,2.13
2022-12-09T13:27:51.062Z,2.17
2022-12-09T13:30:23.334Z,2.00
2022-12-09T13:33:21.383Z,2.60
2022-12-09T13:35:56.874Z,2.00
2022-12-09T13:38:36.444Z,2.20
2022-12-09T13:42:03.968Z,1.90
2022-12-09T13:44:36.685Z,2.15
2022-12-09T13:47:24.476Z,2.58
2022-12-09T13:50:00.662Z,2.17
2022-12-09T13:52:51.784Z,2.28
2022-12-09T13:55:33.755Z,1.85
2022-12-09T13:58:47.108Z,2.08
2022-12-09T14:01:24.723Z,2.50
2022-12-09T14:04:08.159Z,1.80
2022-12-09T14:06:48.886Z,1.85
2022-12-09T14:09:34.230Z,2.10
2022-12-09T14:12:06.527Z,2.25
2022-12-09T14:15:01.542Z,2.35
2022-12-09T14:18:03.074Z,2.20
2022-12-09T14:20:39.072Z,2.10
2022-12-09T14:23:18.408Z,2.00
2022-12-09T14:26:09.358Z,1.88
2022-12-09T14:28:55.788Z,2.15
2022-12-09T14:32:01.706Z,2.30
2022-12-09T14:34:40.211Z,2.22
2022-12-09T14:37:45.373Z,2.05
2022-12-09T14:40:53.080Z,2.15
2022-12-09T14:44:15.758Z,2.00
2022-12-09T14:46:49.291Z,1.80
2022-12-09T14:49:21.883Z,2.22
2022-12-09T14:51:53.168Z,2.42
2022-12-09T14:54:26.638Z,2.75
2022-12-09T14:56:59.076Z,3.10
2022-12-09T14:59:31.838Z,4.43
2022-12-09T15:02:03.347Z,5.55
2022-12-09T15:04:34.748Z,4.78
2022-12-09T15:07:16.194Z,4.70
2022-12-09T15:09:54.763Z,5.20
2022-12-09T15:12:30.434Z,4.60
2022-12-09T15:15:07.449Z,5.10
2022-12-09T15:17:43.203Z,4.80
2022-12-09T15:20:24.589Z,5.20
2022-12-09T15:22:55.447Z,5.13
2022-12-09T15:25:25.307Z,5.70
2022-12-09T15:28:02.663Z,6.03
2022-12-09T15:30:38.422Z,6.63
2022-12-09T15:33:15.843Z,5.95
2022-12-09T15:35:50.901Z,6.30
2022-12-09T15:38:21.479Z,6.72
2022-12-09T15:41:03.817Z,7.53
2022-12-09T15:43:35.921Z,7.30
2022-12-09T15:46:06.788Z,7.43
2022-12-09T15:48:41.757Z,6.82
2022-12-09T15:51:17.318Z,7.35
2022-12-09T15:53:55.271Z,6.80
2022-12-09T15:56:28.812Z,9.60
2022-12-09T15:59:02.141Z,210.48
2022-12-09T16:01:34.572Z,266.90
2022-12-09T16:04:05.138Z,261.95
2022-12-09T16:06:36.799Z,265.73
2022-12-09T16:09:13.770Z,265.48
2022-12-09T16:11:45.642Z,245.27
2022-12-09T16:14:15.682Z,289.55
2022-12-09T16:16:48.578Z,292.65
2022-12-09T16:19:35.092Z,259.70
2022-12-09T16:22:07.733Z,291.45
2022-12-09T16:25:13.030Z,252.95
2022-12-09T16:27:37.270Z,439.20
2022-12-09T16:30:14.470Z,340.08
2022-12-09T16:32:46.301Z,152.63
2022-12-09T16:35:24.295Z,116.25
2022-12-09T16:38:22.881Z,140.07
2022-12-09T16:41:12.845Z,145.45
2022-12-09T16:43:59.153Z,128.95
2022-12-09T16:46:40.484Z,105.40
2022-12-09T16:49:10.569Z,105.32
2022-12-09T16:51:40.440Z,101.15
2022-12-09T16:54:20.583Z,101.28
2022-12-09T16:56:51.315Z,95.55
2022-12-09T16:59:19.813Z,95.63
2022-12-09T17:01:48.344Z,90.65
2022-12-09T17:04:22.017Z,89.18
2022-12-09T17:06:50.660Z,84.90
2022-12-09T17:09:19.071Z,84.10
2022-12-09T17:11:49.119Z,83.32
2022-12-09T17:14:18.556Z,79.93
2022-12-09T17:16:47.041Z,66.55
2022-12-09T17:19:16.907Z,53.67
2022-12-09T17:21:45.318Z,47.05
2022-12-09T17:24:15.827Z,43.53
2022-12-09T17:26:44.257Z,40.42
2022-12-09T17:29:17.725Z,38.67
2022-12-09T17:31:49.569Z,36.42
2022-12-09T17:34:19.951Z,35.80
2022-12-09T17:36:48.408Z,34.78
2022-12-09T17:39:16.773Z,34.10
2022-12-09T17:41:45.247Z,30.10
2022-12-09T17:44:13.679Z,30.73
2022-12-09T17:46:42.125Z,30.90
2022-12-09T17:49:10.739Z,31.33
2022-12-09T17:51:41.022Z,30.27
2022-12-09T17:54:09.740Z,29.45
2022-12-09T17:56:38.676Z,28.63
2022-12-09T17:59:10.223Z,28.20
2022-12-09T18:01:41.041Z,29.02
2022-12-09T18:04:11.135Z,27.88
2022-12-09T18:06:43.293Z,27.08
2022-12-09T18:09:14.632Z,26.77
2022-12-09T18:11:43.983Z,26.50
2022-12-09T18:14:12.856Z,26.02
2022-12-09T18:16:41.875Z,25.42
2022-12-09T18:19:16.338Z,25.83
2022-12-09T18:21:46.595Z,25.30
2022-12-09T18:24:15.036Z,24.48
2022-12-09T18:26:43.992Z,23.52
2022-12-09T18:29:13.295Z,23.13
2022-12-09T18:31:45.505Z,23.85
2022-12-09T18:34:14.291Z,22.92
2022-12-09T18:36:42.833Z,22.50
2022-12-09T18:39:12.949Z,22.67
2022-12-09T18:41:42.537Z,22.45
2022-12-09T18:44:13.196Z,22.17
2022-12-09T18:46:45.293Z,21.45
2022-12-09T18:49:16.378Z,22.15
2022-12-09T18:51:47.224Z,21.58
2022-12-09T18:54:20.328Z,21.98
2022-12-09T18:56:48.776Z,21.50
2022-12-09T18:59:17.381Z,19.83
2022-12-09T19:01:48.123Z,19.67
2022-12-09T19:04:19.408Z,20.05
2022-12-09T19:06:50.953Z,19.33
2022-12-09T19:09:24.642Z,18.65
2022-12-09T19:11:54.452Z,19.73
2022-12-09T19:14:24.433Z,19.40
2022-12-09T19:16:54.269Z,19.08
2022-12-09T19:19:24.831Z,18.90
2022-12-09T19:21:54.444Z,19.30
2022-12-09T19:24:27.698Z,19.77
2022-12-09T19:26:58.183Z,19.30
2022-12-09T19:29:28.029Z,18.80
2022-12-09T19:31:58.416Z,18.25
2022-12-09T19:34:29.520Z,18.08
2022-12-09T19:37:01.411Z,17.35
2022-12-09T19:39:34.146Z,17.77
2022-12-09T19:42:04.883Z,18.08
2022-12-09T19:47:22.473Z,17.55
2022-12-09T19:49:50.981Z,17.02
2022-12-09T19:52:19.715Z,16.70
2022-12-09T19:54:49.595Z,16.95
2022-12-09T19:57:18.049Z,16.60
2022-12-09T19:59:47.397Z,17.23
2022-12-09T20:02:15.783Z,16.50
2022-12-09T20:04:49.107Z,16.85
2022-12-09T20:07:18.467Z,15.75
2022-12-09T20:09:48.309Z,16.20
2022-12-09T20:12:16.728Z,16.30
2022-12-09T20:14:45.254Z,16.73
2022-12-09T20:17:13.700Z,16.52
2022-12-09T20:19:42.438Z,15.60
2022-12-09T20:22:11.136Z,15.88
2022-12-09T20:24:39.633Z,15.80
2022-12-09T20:27:10.155Z,15.95
2022-12-09T20:29:38.666Z,15.25
2022-12-09T20:32:08.729Z,15.63
2022-12-09T20:34:37.547Z,14.60
2022-12-09T20:37:07.158Z,14.93
2022-12-09T20:39:35.719Z,14.75
2022-12-09T20:42:03.981Z,14.90
2022-12-09T20:44:33.747Z,13.68
2022-12-09T20:47:02.091Z,14.13
2022-12-09T20:49:30.693Z,14.68
2022-12-09T20:51:59.221Z,14.57
2022-12-09T20:54:27.977Z,14.25
2022-12-09T20:56:56.679Z,13.15
2022-12-09T20:59:25.508Z,13.43
2022-12-09T21:01:55.961Z,14.57
2022-12-09T21:04:24.924Z,15.13
2022-12-09T21:06:53.724Z,15.85
2022-12-09T21:09:27.028Z,15.48
2022-12-09T21:11:55.597Z,15.55
2022-12-09T21:14:28.103Z,15.40
2022-12-09T21:17:04.532Z,15.80
2022-12-09T21:19:34.237Z,13.88
2022-12-09T21:22:04.014Z,14.73
2022-12-09T21:24:33.054Z,14.40
2022-12-09T21:27:01.755Z,14.43
2022-12-09T21:29:32.194Z,15.05
2022-12-09T21:32:03.144Z,14.73
2022-12-09T21:34:32.763Z,15.38
2022-12-09T21:37:01.996Z,14.65
2022-12-09T21:39:30.499Z,16.10
2022-12-09T21:41:58.928Z,14.73
2022-12-09T21:44:28.280Z,14.98
2022-12-09T21:46:56.947Z,14.50
2022-12-09T21:49:29.604Z,14.32
2022-12-09T21:51:58.355Z,14.07
2022-12-09T21:54:27.111Z,13.70
2022-12-09T21:56:56.109Z,14.93
2022-12-09T21:59:24.527Z,14.48
2022-12-09T22:01:54.116Z,14.35
2022-12-09T22:04:22.509Z,13.27
2022-12-09T22:06:52.863Z,14.40
2022-12-09T22:09:21.769Z,14.05
2022-12-09T22:11:50.212Z,13.70
2022-12-09T22:14:18.959Z,13.88
2022-12-09T22:16:48.085Z,13.88
2022-12-09T22:19:19.488Z,13.93
2022-12-09T22:21:48.465Z,13.75
2022-12-09T22:24:19.345Z,14.77
2022-12-09T22:26:47.845Z,13.60
2022-12-09T22:29:18.944Z,13.05
2022-12-09T22:31:47.979Z,13.02
2022-12-09T22:34:20.476Z,13.50
2022-12-09T22:36:50.342Z,13.05
2022-12-09T22:39:22.852Z,12.38
2022-12-09T22:41:51.851Z,12.68
2022-12-09T22:44:21.476Z,12.85
2022-12-09T22:46:50.150Z,12.65
2022-12-09T23:46:16.869Z,10.73
2022-12-09T23:48:46.424Z,11.15
2022-12-09T23:51:18.269Z,10.75
2022-12-09T23:53:49.390Z,10.30
2022-12-09T23:56:21.688Z,9.77
2022-12-09T23:58:55.671Z,10.52
